Gyor, Hungary
Current Conditions -  °F | °C
As of 12:45 AM on Sunday 21 Dec 2014 (Local Time) from LHPR Reporting Station
Clear Clear  
Wind Chill: 36°   Ceiling: Unl
Heat Index: 45°   Visibility: 6mi
Dew Point: 34°   Wind: 21mph
Humidity: 66%   Direction: 280°W
Pressure: 30.09"   Gusts: 32mph
Location:  47.69°N, 17.64°E
Report Text: LHPR 202245Z 28018G28KT CAVOK 07/01 Q1019
Loading
Personal Weather Stations






























Interactive Weather Map New forecast layout! Learn more

10-Day Weather Forecast

Advertisements
Track Severe Weather on mobile